createdAt,value
2018-07-09T00:00:26.209Z,18.20
2018-07-09T00:01:32.693Z,18.18
2018-07-09T00:02:39.176Z,18.15
2018-07-09T00:03:45.661Z,18.18
2018-07-09T00:04:52.160Z,18.13
2018-07-09T00:05:58.651Z,18.13
2018-07-09T00:07:05.621Z,18.09
2018-07-09T00:08:11.624Z,18.05
2018-07-09T00:09:19.107Z,18.06
2018-07-09T00:10:24.600Z,18.06
2018-07-09T00:11:31.091Z,18.03
2018-07-09T00:12:37.571Z,18.00
2018-07-09T00:13:44.359Z,17.93
2018-07-09T00:14:50.547Z,17.94
2018-07-09T00:15:57.026Z,17.94
2018-07-09T00:17:03.504Z,17.91
2018-07-09T00:18:09.976Z,17.84
2018-07-09T00:19:16.471Z,17.76
2018-07-09T00:20:22.991Z,17.73
2018-07-09T00:21:29.435Z,17.74
2018-07-09T00:22:35.911Z,17.67
2018-07-09T00:23:42.688Z,17.68
2018-07-09T00:24:48.861Z,17.82
2018-07-09T00:25:55.355Z,17.86
2018-07-09T00:27:01.828Z,17.91
2018-07-09T00:28:08.306Z,17.97
2018-07-09T00:29:14.895Z,17.96
2018-07-09T00:30:21.264Z,17.90
2018-07-09T00:31:27.742Z,17.89
2018-07-09T00:32:34.222Z,17.84
2018-07-09T00:33:40.686Z,17.84
2018-07-09T00:34:47.166Z,17.81
2018-07-09T00:35:53.649Z,17.87
2018-07-09T00:37:00.119Z,17.90
2018-07-09T00:38:06.600Z,17.85
2018-07-09T00:39:13.081Z,17.87
2018-07-09T00:40:19.559Z,17.87
2018-07-09T00:41:26.040Z,17.81
2018-07-09T00:42:32.500Z,17.76
2018-07-09T00:43:38.978Z,17.77
2018-07-09T00:44:45.462Z,17.76
2018-07-09T00:45:51.949Z,17.77
2018-07-09T00:46:58.426Z,17.73
2018-07-09T00:48:04.912Z,17.70
2018-07-09T00:49:11.363Z,17.67
2018-07-09T00:50:17.842Z,17.67
2018-07-09T00:51:24.314Z,17.80
2018-07-09T00:52:30.783Z,17.77
2018-07-09T00:53:37.263Z,17.72
2018-07-09T00:54:43.741Z,17.62
2018-07-09T00:55:50.216Z,17.60
2018-07-09T00:56:56.694Z,17.59
2018-07-09T00:58:03.168Z,17.56
2018-07-09T00:59:09.638Z,17.49
2018-07-09T01:00:16.119Z,17.46
2018-07-09T01:01:22.579Z,17.47
2018-07-09T01:02:29.051Z,17.46
2018-07-09T01:03:35.525Z,17.46
2018-07-09T01:04:42.004Z,17.41
2018-07-09T01:05:48.489Z,17.39
2018-07-09T01:06:54.956Z,17.44
2018-07-09T01:08:01.420Z,17.49
2018-07-09T01:09:07.889Z,17.59
2018-07-09T01:10:14.363Z,17.63
2018-07-09T01:11:20.920Z,17.62
2018-07-09T01:12:27.286Z,17.54
2018-07-09T01:13:33.764Z,17.50
2018-07-09T01:14:40.230Z,17.46
2018-07-09T01:15:46.715Z,17.46
2018-07-09T01:16:53.178Z,17.52
2018-07-09T01:17:59.647Z,17.54
2018-07-09T01:19:06.108Z,17.54
2018-07-09T01:20:12.589Z,17.49
2018-07-09T01:21:19.056Z,17.39
2018-07-09T01:22:25.512Z,17.30
2018-07-09T01:23:31.982Z,17.28
2018-07-09T01:24:38.448Z,17.32
2018-07-09T01:25:44.930Z,17.32
2018-07-09T01:26:51.395Z,17.24
2018-07-09T01:27:57.861Z,17.25
2018-07-09T01:29:04.331Z,17.23
2018-07-09T01:30:11.291Z,17.23
2018-07-09T01:31:17.264Z,17.22
2018-07-09T01:32:23.723Z,17.22
2018-07-09T01:33:30.190Z,17.16
2018-07-09T01:34:36.652Z,17.22
2018-07-09T01:35:43.122Z,17.20
2018-07-09T01:36:49.580Z,17.11
2018-07-09T01:37:56.031Z,17.15
2018-07-09T01:39:02.492Z,17.12
2018-07-09T01:40:08.965Z,17.09
2018-07-09T01:41:15.421Z,17.10
2018-07-09T01:42:21.874Z,17.07
2018-07-09T01:43:28.336Z,17.01
2018-07-09T01:44:34.913Z,16.97
2018-07-09T01:45:41.263Z,17.00
2018-07-09T01:46:47.721Z,16.98
2018-07-09T01:47:54.171Z,16.94
2018-07-09T01:49:00.628Z,16.85
2018-07-09T01:50:07.088Z,16.78
2018-07-09T01:51:13.560Z,16.84
2018-07-09T01:52:20.005Z,16.89
2018-07-09T01:53:26.457Z,16.91
2018-07-09T01:54:32.915Z,16.90
2018-07-09T01:55:39.376Z,16.84
2018-07-09T01:56:45.822Z,16.81
2018-07-09T01:57:52.274Z,16.81
2018-07-09T01:58:58.751Z,16.80
2018-07-09T02:00:05.192Z,16.86
2018-07-09T02:01:11.651Z,16.86
2018-07-09T02:02:18.093Z,16.81
2018-07-09T02:03:24.548Z,16.76
2018-07-09T02:04:32.003Z,16.68
2018-07-09T02:05:37.466Z,16.68
2018-07-09T02:06:43.902Z,16.67
2018-07-09T02:07:50.359Z,16.64
2018-07-09T02:08:56.905Z,16.60
2018-07-09T02:10:03.274Z,16.58
2018-07-09T02:11:09.711Z,16.62
2018-07-09T02:12:16.159Z,16.57
2018-07-09T02:13:22.603Z,16.58
2018-07-09T02:14:29.051Z,16.57
2018-07-09T02:15:35.507Z,16.54
2018-07-09T02:16:41.953Z,16.48
2018-07-09T02:17:48.401Z,16.44
2018-07-09T02:18:54.840Z,16.47
2018-07-09T02:20:01.295Z,16.49
2018-07-09T02:21:07.738Z,16.51
2018-07-09T02:22:14.179Z,16.57
2018-07-09T02:23:20.622Z,16.59
2018-07-09T02:24:27.070Z,16.55
2018-07-09T02:25:33.502Z,16.46
2018-07-09T02:26:39.955Z,16.41
2018-07-09T02:27:46.401Z,16.45
2018-07-09T02:28:52.831Z,16.44
2018-07-09T02:29:59.272Z,16.45
2018-07-09T02:31:05.729Z,16.47
2018-07-09T02:32:12.159Z,16.45
2018-07-09T02:33:18.608Z,16.38
2018-07-09T02:34:25.060Z,16.36
2018-07-09T02:35:31.478Z,16.33
2018-07-09T02:36:37.927Z,16.33
2018-07-09T02:37:44.365Z,16.31
2018-07-09T02:38:50.917Z,16.25
2018-07-09T02:39:57.236Z,16.12
2018-07-09T02:41:03.685Z,15.96
2018-07-09T02:42:10.114Z,15.84
2018-07-09T02:43:16.571Z,15.73
2018-07-09T02:44:22.991Z,15.64
2018-07-09T02:45:29.433Z,15.65
2018-07-09T02:46:35.882Z,15.83
2018-07-09T02:47:42.309Z,16.04
2018-07-09T02:48:48.763Z,16.10
2018-07-09T02:49:55.188Z,16.14
2018-07-09T02:51:01.633Z,16.18
2018-07-09T02:52:08.080Z,16.22
2018-07-09T02:53:14.998Z,16.20
2018-07-09T02:54:20.939Z,16.16
2018-07-09T02:55:27.392Z,16.08
2018-07-09T02:56:33.839Z,16.07
2018-07-09T02:57:40.261Z,16.15
2018-07-09T02:58:46.686Z,16.18
2018-07-09T02:59:53.140Z,16.16
2018-07-09T03:01:00.678Z,16.12
2018-07-09T03:02:05.997Z,16.08
2018-07-09T03:03:12.482Z,16.04
2018-07-09T03:04:18.859Z,16.03
2018-07-09T03:05:25.289Z,16.02
2018-07-09T03:06:31.729Z,16.03
2018-07-09T03:07:38.154Z,16.07
2018-07-09T03:08:44.583Z,16.13
2018-07-09T03:09:51.023Z,16.11
2018-07-09T03:10:57.457Z,16.03
2018-07-09T03:12:03.881Z,16.05
2018-07-09T03:13:10.306Z,16.10
2018-07-09T03:14:16.735Z,16.14
2018-07-09T03:15:23.156Z,16.09
2018-07-09T03:16:29.596Z,16.02
2018-07-09T03:17:36.030Z,16.06
2018-07-09T03:18:42.649Z,16.01
2018-07-09T03:19:48.885Z,16.00
2018-07-09T03:20:55.322Z,16.00
2018-07-09T03:22:01.745Z,16.04
2018-07-09T03:23:08.164Z,16.02
2018-07-09T03:24:14.596Z,15.94
2018-07-09T03:25:21.029Z,15.93
2018-07-09T03:26:27.454Z,15.95
2018-07-09T03:27:33.875Z,15.98
2018-07-09T03:28:40.302Z,15.98
2018-07-09T03:29:46.740Z,15.95
2018-07-09T03:30:53.159Z,15.98
2018-07-09T03:31:59.597Z,16.03
2018-07-09T03:33:06.012Z,16.03
2018-07-09T03:34:12.441Z,16.00
2018-07-09T03:35:18.872Z,15.98
2018-07-09T03:36:25.308Z,15.95
2018-07-09T03:37:31.730Z,15.88
2018-07-09T03:38:38.155Z,15.89
2018-07-09T03:39:44.589Z,15.84
2018-07-09T03:40:51.021Z,15.87
2018-07-09T03:41:57.443Z,15.90
2018-07-09T03:43:03.875Z,15.94
2018-07-09T03:44:10.293Z,15.94
2018-07-09T03:45:16.725Z,15.92
2018-07-09T03:46:23.161Z,15.92
2018-07-09T03:47:29.578Z,15.91
2018-07-09T03:48:36.033Z,15.89
2018-07-09T03:49:42.439Z,15.90
2018-07-09T03:50:48.867Z,15.91
2018-07-09T03:51:55.294Z,15.95
2018-07-09T03:53:01.718Z,15.97
2018-07-09T03:54:08.144Z,15.99
2018-07-09T03:55:14.559Z,15.97
2018-07-09T03:56:20.985Z,15.95
2018-07-09T03:57:27.422Z,15.95
2018-07-09T03:58:33.838Z,15.95
2018-07-09T03:59:40.271Z,15.93
2018-07-09T04:00:46.706Z,15.93
2018-07-09T04:01:53.136Z,15.95
2018-07-09T04:02:59.750Z,15.95
2018-07-09T04:04:05.979Z,15.98
2018-07-09T04:05:12.413Z,16.02
2018-07-09T04:06:18.838Z,16.00
2018-07-09T04:07:25.275Z,15.99
2018-07-09T04:08:31.718Z,15.98
2018-07-09T04:09:38.117Z,15.95
2018-07-09T04:10:44.561Z,15.92
2018-07-09T04:11:50.983Z,15.87
2018-07-09T04:12:57.402Z,15.84
2018-07-09T04:14:03.838Z,15.77
2018-07-09T04:15:10.258Z,15.71
2018-07-09T04:16:16.700Z,15.65
2018-07-09T04:17:23.121Z,15.69
2018-07-09T04:18:29.539Z,15.70
2018-07-09T04:19:35.976Z,15.72
2018-07-09T04:20:42.394Z,15.71
2018-07-09T04:21:48.907Z,15.74
2018-07-09T04:22:55.264Z,15.78
2018-07-09T04:24:02.671Z,15.79
2018-07-09T04:25:08.121Z,15.78
2018-07-09T04:26:14.561Z,15.76
2018-07-09T04:27:20.974Z,15.82
2018-07-09T04:28:27.397Z,15.88
2018-07-09T04:29:33.829Z,15.89
2018-07-09T04:30:40.259Z,15.92
2018-07-09T04:31:46.745Z,15.97
2018-07-09T04:32:53.119Z,16.01
2018-07-09T04:33:59.544Z,16.01
2018-07-09T04:35:05.988Z,16.01
2018-07-09T04:36:12.425Z,16.01
2018-07-09T04:37:18.858Z,16.04
2018-07-09T04:38:25.272Z,16.11
2018-07-09T04:39:31.712Z,16.10
2018-07-09T04:40:38.137Z,16.14
2018-07-09T04:41:44.588Z,16.19
2018-07-09T04:42:51.006Z,16.23
2018-07-09T04:43:57.458Z,16.21
2018-07-09T04:45:03.881Z,16.23
2018-07-09T04:46:10.316Z,16.27
2018-07-09T04:47:16.762Z,16.30
2018-07-09T04:48:23.177Z,16.28
2018-07-09T04:49:29.632Z,16.28
2018-07-09T04:50:36.051Z,16.28
2018-07-09T04:51:42.502Z,16.28
2018-07-09T04:52:48.942Z,16.29
2018-07-09T04:53:55.365Z,16.35
2018-07-09T04:55:01.808Z,16.41
2018-07-09T04:56:08.256Z,16.43
2018-07-09T04:57:14.699Z,16.45
2018-07-09T04:58:21.131Z,16.50
2018-07-09T04:59:27.569Z,16.51
2018-07-09T05:00:34.012Z,16.53
2018-07-09T05:01:40.963Z,16.58
2018-07-09T05:02:46.914Z,16.62
2018-07-09T05:03:53.348Z,16.64
2018-07-09T05:04:59.802Z,16.68
2018-07-09T05:06:06.243Z,16.71
2018-07-09T05:07:12.702Z,16.75
2018-07-09T05:08:19.142Z,16.81
2018-07-09T05:09:25.592Z,16.87
2018-07-09T05:10:32.043Z,16.92
2018-07-09T05:11:38.500Z,16.96
2018-07-09T05:12:44.971Z,17.00
2018-07-09T05:13:51.425Z,17.02
2018-07-09T05:14:57.874Z,17.02
2018-07-09T05:16:04.345Z,17.03
2018-07-09T05:17:10.902Z,17.04
2018-07-09T05:18:17.264Z,17.03
2018-07-09T05:19:23.734Z,16.99
2018-07-09T05:20:30.206Z,16.97
2018-07-09T05:21:36.657Z,16.92
2018-07-09T05:22:43.125Z,16.91
2018-07-09T05:23:49.585Z,16.85
2018-07-09T05:24:56.049Z,16.80
2018-07-09T05:26:02.530Z,16.74
2018-07-09T05:27:08.965Z,16.73
2018-07-09T05:28:15.607Z,16.69
2018-07-09T05:29:21.879Z,16.67
2018-07-09T05:30:28.327Z,16.66
2018-07-09T05:31:35.188Z,16.68
2018-07-09T05:32:41.293Z,16.68
2018-07-09T05:33:47.714Z,16.75
2018-07-09T05:34:54.169Z,16.81
2018-07-09T05:36:00.612Z,16.85
2018-07-09T05:37:07.082Z,16.86
2018-07-09T05:38:13.534Z,16.90
2018-07-09T05:39:19.986Z,16.94
2018-07-09T05:40:26.444Z,16.97
2018-07-09T05:41:32.906Z,17.00
2018-07-09T05:42:39.369Z,17.03
2018-07-09T05:43:45.822Z,17.07
2018-07-09T05:44:52.287Z,17.09
2018-07-09T05:45:58.756Z,17.11
2018-07-09T05:47:05.215Z,17.15
2018-07-09T05:48:11.672Z,17.20
2018-07-09T05:49:18.130Z,17.22
2018-07-09T05:50:24.590Z,17.24
2018-07-09T05:51:31.059Z,17.25
2018-07-09T05:52:37.522Z,17.28
2018-07-09T05:53:43.985Z,17.31
2018-07-09T05:54:50.907Z,17.35
2018-07-09T05:55:56.908Z,17.36
2018-07-09T05:57:03.383Z,17.38
2018-07-09T05:58:09.846Z,17.40
2018-07-09T05:59:16.315Z,17.42
2018-07-09T06:00:22.903Z,17.46
2018-07-09T06:01:29.264Z,17.52
2018-07-09T06:02:35.736Z,17.57
2018-07-09T06:03:42.201Z,17.65
2018-07-09T06:04:48.680Z,17.71
2018-07-09T06:05:55.160Z,17.73
2018-07-09T06:07:01.639Z,17.79
2018-07-09T06:08:08.114Z,17.87
2018-07-09T06:09:14.599Z,18.00
2018-07-09T06:10:21.076Z,18.17
2018-07-09T06:11:27.591Z,18.24
2018-07-09T06:12:34.063Z,18.32
2018-07-09T06:13:40.594Z,18.31
2018-07-09T06:14:47.048Z,18.33
2018-07-09T06:15:53.540Z,18.44
2018-07-09T06:17:00.034Z,18.51
2018-07-09T06:18:06.952Z,18.55
2018-07-09T06:19:13.032Z,18.62
2018-07-09T06:20:19.525Z,18.65
2018-07-09T06:21:26.036Z,18.65
2018-07-09T06:22:32.541Z,18.52
2018-07-09T06:23:39.029Z,18.41
2018-07-09T06:24:45.537Z,18.35
2018-07-09T06:25:52.032Z,18.33
2018-07-09T06:26:58.538Z,18.36
2018-07-09T06:28:05.064Z,18.30
2018-07-09T06:29:11.533Z,18.29
2018-07-09T06:30:19.030Z,18.34
2018-07-09T06:31:24.542Z,18.35
2018-07-09T06:32:31.045Z,18.37
2018-07-09T06:33:37.540Z,18.38
2018-07-09T06:34:44.043Z,18.39
2018-07-09T06:35:50.534Z,18.38
2018-07-09T06:36:57.042Z,18.35
2018-07-09T06:38:03.547Z,18.27
2018-07-09T06:39:10.047Z,18.23
2018-07-09T06:40:16.542Z,18.24
2018-07-09T06:41:23.039Z,18.23
2018-07-09T06:42:29.530Z,18.24
2018-07-09T06:43:36.080Z,18.21
2018-07-09T06:44:42.550Z,18.26
2018-07-09T06:45:49.043Z,18.27
2018-07-09T06:46:55.554Z,18.28
2018-07-09T06:48:02.068Z,18.30
2018-07-09T06:49:08.576Z,18.36
2018-07-09T06:50:15.089Z,18.42
2018-07-09T06:51:21.600Z,18.47
2018-07-09T06:52:28.120Z,18.54
2018-07-09T06:53:34.645Z,18.60
2018-07-09T06:54:41.162Z,18.59
2018-07-09T06:55:47.686Z,18.61
2018-07-09T06:56:54.203Z,18.67
2018-07-09T06:58:00.734Z,18.66
2018-07-09T06:59:07.263Z,18.65
2018-07-09T07:00:13.777Z,18.66
2018-07-09T07:01:20.309Z,18.69
2018-07-09T07:02:26.848Z,18.72
2018-07-09T07:03:33.372Z,18.67
2018-07-09T07:04:39.903Z,18.70
2018-07-09T07:05:46.434Z,18.77
2018-07-09T07:06:52.975Z,18.79
2018-07-09T07:07:59.507Z,18.72
2018-07-09T07:09:06.130Z,18.75
2018-07-09T07:10:12.566Z,18.69
2018-07-09T07:11:19.099Z,18.68
2018-07-09T07:12:25.629Z,18.73
2018-07-09T07:13:32.183Z,18.81
2018-07-09T07:14:38.713Z,18.85
2018-07-09T07:15:45.250Z,18.83
2018-07-09T07:16:51.789Z,18.91
2018-07-09T07:17:58.336Z,18.95
2018-07-09T07:19:05.868Z,19.00
2018-07-09T07:20:11.409Z,19.69
2018-07-09T07:21:17.952Z,21.89
2018-07-09T07:22:24.483Z,24.92
2018-07-09T07:23:31.045Z,27.51
2018-07-09T07:24:37.621Z,29.13
2018-07-09T07:25:44.583Z,29.57
2018-07-09T07:26:50.674Z,30.49
2018-07-09T07:27:57.229Z,29.79
2018-07-09T07:29:03.773Z,28.60
2018-07-09T07:30:10.312Z,28.50
2018-07-09T07:31:16.872Z,28.63
2018-07-09T07:32:23.423Z,27.75
2018-07-09T07:33:29.996Z,25.83
2018-07-09T07:34:36.549Z,25.32
2018-07-09T07:35:43.081Z,26.50
2018-07-09T07:36:49.653Z,28.25
2018-07-09T07:37:56.190Z,29.96
2018-07-09T07:39:03.757Z,31.11
2018-07-09T07:40:09.311Z,32.38
2018-07-09T07:41:15.876Z,33.16
2018-07-09T07:42:22.440Z,32.85
2018-07-09T07:43:29.007Z,32.37
2018-07-09T07:44:35.568Z,31.16
2018-07-09T07:45:42.138Z,29.45
2018-07-09T07:46:48.705Z,27.74
2018-07-09T07:47:55.282Z,26.19
2018-07-09T07:49:01.864Z,24.72
2018-07-09T07:50:08.515Z,23.50
2018-07-09T07:51:15.015Z,22.59
2018-07-09T07:52:21.604Z,22.00
2018-07-09T07:53:28.183Z,21.49
2018-07-09T07:54:34.764Z,21.27
2018-07-09T07:55:41.354Z,21.07
2018-07-09T07:56:47.950Z,20.85
2018-07-09T07:57:54.529Z,20.77
2018-07-09T07:59:01.323Z,20.72
2018-07-09T08:00:07.711Z,20.78
2018-07-09T08:01:14.312Z,20.65
2018-07-09T08:02:20.884Z,20.57
2018-07-09T08:03:27.489Z,20.51
2018-07-09T08:04:34.078Z,20.44
2018-07-09T08:05:40.658Z,20.37
2018-07-09T08:06:47.272Z,20.32
2018-07-09T08:07:53.847Z,20.23
2018-07-09T08:09:00.441Z,20.25
2018-07-09T08:10:07.023Z,20.24
2018-07-09T08:11:13.621Z,20.18
2018-07-09T08:13:29.008Z,20.31
2018-07-09T08:14:33.401Z,20.38
2018-07-09T08:15:40.083Z,20.44
2018-07-09T08:16:46.584Z,20.45
2018-07-09T08:17:53.188Z,20.49
2018-07-09T08:18:59.797Z,20.44
2018-07-09T08:20:06.372Z,20.32
2018-07-09T08:21:12.970Z,20.21
2018-07-09T08:22:19.572Z,20.29
2018-07-09T08:23:26.184Z,20.30
2018-07-09T08:24:32.786Z,20.41
2018-07-09T08:25:39.427Z,20.57
2018-07-09T08:26:45.982Z,20.73
2018-07-09T08:27:52.576Z,20.72
2018-07-09T08:28:59.180Z,20.59
2018-07-09T08:30:05.782Z,20.59
2018-07-09T08:31:12.512Z,20.69
2018-07-09T08:32:18.986Z,20.68
2018-07-09T08:33:25.603Z,20.71
2018-07-09T08:34:32.207Z,20.78
2018-07-09T08:35:38.907Z,20.95
2018-07-09T08:36:45.425Z,21.13
2018-07-09T08:37:52.058Z,21.24
2018-07-09T08:38:58.654Z,21.16
2018-07-09T08:40:05.254Z,21.10
2018-07-09T08:41:11.876Z,21.09
2018-07-09T08:42:18.494Z,20.88
2018-07-09T08:43:26.121Z,20.82
2018-07-09T08:44:31.761Z,20.78
2018-07-09T08:45:38.367Z,20.67
2018-07-09T08:46:44.989Z,20.65
2018-07-09T08:47:52.098Z,20.73
2018-07-09T08:48:58.223Z,20.69
2018-07-09T08:50:04.850Z,20.81
2018-07-09T08:51:11.455Z,20.97
2018-07-09T08:52:18.087Z,21.02
2018-07-09T08:53:24.705Z,20.98
2018-07-09T08:54:31.327Z,20.89
2018-07-09T08:55:37.941Z,20.92
2018-07-09T08:56:44.563Z,20.95
2018-07-09T08:57:51.205Z,21.02
2018-07-09T08:58:57.825Z,20.99
2018-07-09T09:00:04.439Z,20.99
2018-07-09T09:01:11.061Z,20.98
2018-07-09T09:02:17.698Z,21.04
2018-07-09T09:03:24.320Z,21.22
2018-07-09T09:04:30.951Z,21.39
2018-07-09T09:05:37.581Z,21.40
2018-07-09T09:06:44.211Z,21.43
2018-07-09T09:07:50.840Z,21.33
2018-07-09T09:08:57.484Z,21.30
2018-07-09T09:10:05.121Z,21.22
2018-07-09T09:11:10.750Z,21.12
2018-07-09T09:12:17.382Z,21.22
2018-07-09T09:13:24.020Z,21.36
2018-07-09T09:14:31.666Z,21.42
2018-07-09T09:15:37.301Z,21.33
2018-07-09T09:16:43.933Z,21.33
2018-07-09T09:17:50.569Z,21.36
2018-07-09T09:18:57.222Z,21.39
2018-07-09T09:20:03.855Z,21.51
2018-07-09T09:21:10.496Z,21.44
2018-07-09T09:22:17.135Z,21.48
2018-07-09T09:23:23.783Z,21.65
2018-07-09T09:24:30.428Z,21.79
2018-07-09T09:25:37.144Z,21.86
2018-07-09T09:26:43.709Z,21.99
2018-07-09T09:27:50.356Z,21.87
2018-07-09T09:28:57.024Z,21.81
2018-07-09T09:30:03.660Z,21.74
2018-07-09T09:31:10.332Z,21.51
2018-07-09T09:32:16.951Z,21.51
2018-07-09T09:33:23.611Z,21.60
2018-07-09T09:34:30.255Z,21.72
2018-07-09T09:35:36.896Z,21.88
2018-07-09T09:36:43.550Z,22.05
2018-07-09T09:37:50.203Z,21.93
2018-07-09T09:38:56.849Z,21.86
2018-07-09T09:40:03.503Z,21.85
2018-07-09T09:41:10.144Z,21.95
2018-07-09T09:42:16.787Z,21.93
2018-07-09T09:43:23.439Z,21.99
2018-07-09T09:44:30.095Z,21.98
2018-07-09T09:45:36.757Z,21.99
2018-07-09T09:46:43.627Z,22.11
2018-07-09T09:47:51.041Z,22.17
2018-07-09T09:48:56.703Z,22.25
2018-07-09T09:50:03.357Z,22.37
2018-07-09T09:51:10.014Z,22.34
2018-07-09T09:52:16.669Z,22.26
2018-07-09T09:53:23.309Z,22.34
2018-07-09T09:54:29.979Z,22.40
2018-07-09T09:55:36.622Z,22.41
2018-07-09T09:56:43.280Z,22.35
2018-07-09T09:57:50.428Z,22.38
2018-07-09T09:58:56.595Z,22.45
2018-07-09T10:00:03.262Z,22.53
2018-07-09T10:01:09.919Z,22.63
2018-07-09T10:02:16.570Z,22.64
2018-07-09T10:03:23.238Z,22.59
2018-07-09T10:04:29.910Z,22.41
2018-07-09T10:05:36.559Z,22.48
2018-07-09T10:06:43.226Z,22.61
2018-07-09T10:07:49.882Z,22.74
2018-07-09T10:08:56.539Z,22.78
2018-07-09T10:10:03.207Z,22.71
2018-07-09T10:11:09.862Z,22.53
2018-07-09T10:12:16.523Z,22.50
2018-07-09T10:13:23.272Z,22.66
2018-07-09T10:14:29.862Z,22.51
2018-07-09T10:15:36.522Z,22.53
2018-07-09T10:16:43.211Z,22.74
2018-07-09T10:17:49.855Z,22.83
2018-07-09T10:18:56.529Z,22.80
2018-07-09T10:20:03.207Z,22.95
2018-07-09T10:21:09.865Z,22.97
2018-07-09T10:22:16.524Z,23.15
2018-07-09T10:23:23.319Z,23.13
2018-07-09T10:24:29.876Z,23.25
2018-07-09T10:25:36.555Z,23.36
2018-07-09T10:26:43.229Z,23.27
2018-07-09T10:27:49.899Z,23.14
2018-07-09T10:28:56.582Z,23.14
2018-07-09T10:30:03.266Z,23.28
2018-07-09T10:31:09.943Z,23.46
2018-07-09T10:32:16.628Z,23.62
2018-07-09T10:33:23.317Z,23.62
2018-07-09T10:34:30.010Z,23.71
2018-07-09T10:35:36.689Z,23.61
2018-07-09T10:36:43.383Z,23.56
2018-07-09T10:37:50.076Z,23.59
2018-07-09T10:38:56.801Z,23.61
2018-07-09T10:40:03.466Z,23.61
2018-07-09T10:41:10.158Z,23.62
2018-07-09T10:42:16.892Z,23.61
2018-07-09T10:43:23.566Z,23.71
2018-07-09T10:44:30.279Z,23.91
2018-07-09T10:45:36.975Z,23.95
2018-07-09T10:46:43.684Z,23.96
2018-07-09T10:47:50.387Z,23.84
2018-07-09T10:48:57.087Z,23.71
2018-07-09T10:50:04.793Z,23.74
2018-07-09T10:51:10.497Z,23.90
2018-07-09T10:52:17.207Z,24.03
2018-07-09T10:53:23.930Z,24.18
2018-07-09T10:54:30.635Z,24.27
2018-07-09T10:55:37.352Z,24.28
2018-07-09T10:56:44.067Z,24.40
2018-07-09T10:57:50.795Z,24.55
2018-07-09T10:58:57.493Z,24.40
2018-07-09T11:00:04.215Z,24.31
2018-07-09T11:01:10.925Z,24.28
2018-07-09T11:02:17.641Z,24.34
2018-07-09T11:03:24.387Z,24.55
2018-07-09T11:04:31.144Z,24.90
2018-07-09T11:05:38.365Z,25.15
2018-07-09T11:06:44.650Z,25.27
2018-07-09T11:07:51.461Z,25.15
2018-07-09T11:08:58.275Z,25.20
2018-07-09T11:10:05.140Z,25.18
2018-07-09T11:11:12.034Z,25.04
2018-07-09T11:12:18.987Z,24.69
2018-07-09T11:13:25.984Z,24.56
2018-07-09T11:14:33.053Z,24.49
2018-07-09T11:15:40.144Z,24.43
2018-07-09T11:16:47.301Z,24.45
2018-07-09T11:17:54.520Z,24.49
2018-07-09T11:19:01.794Z,24.57
2018-07-09T11:20:09.127Z,24.49
2018-07-09T11:21:16.502Z,24.49
2018-07-09T11:22:23.911Z,24.42
2018-07-09T11:23:31.367Z,24.30
2018-07-09T11:24:38.863Z,24.35
2018-07-09T11:25:46.380Z,24.27
2018-07-09T11:26:53.938Z,24.30
2018-07-09T11:28:01.524Z,24.49
2018-07-09T11:29:09.166Z,24.61
2018-07-09T11:30:16.796Z,24.69
2018-07-09T11:31:24.458Z,24.76
2018-07-09T11:32:32.156Z,24.85
2018-07-09T11:33:39.900Z,25.00
2018-07-09T11:34:47.660Z,24.92
2018-07-09T11:35:55.479Z,24.83
2018-07-09T11:37:03.225Z,24.83
2018-07-09T11:38:11.039Z,24.92
2018-07-09T11:39:18.877Z,24.99
2018-07-09T11:40:26.735Z,25.04
2018-07-09T11:41:34.607Z,25.20
2018-07-09T11:42:42.489Z,25.22
2018-07-09T11:43:50.395Z,25.26
2018-07-09T11:44:58.281Z,25.43
2018-07-09T11:46:06.169Z,25.71
2018-07-09T11:47:14.079Z,26.05
2018-07-09T11:48:21.989Z,26.14
2018-07-09T11:49:29.897Z,26.31
2018-07-09T11:50:37.919Z,26.20
2018-07-09T11:51:45.725Z,26.13
2018-07-09T11:52:53.591Z,26.00
2018-07-09T11:54:01.440Z,26.20
2018-07-09T11:55:09.330Z,26.48
2018-07-09T11:56:17.184Z,26.72
2018-07-09T11:57:25.694Z,26.86
2018-07-09T11:58:32.984Z,26.81
2018-07-09T11:59:40.783Z,26.58
2018-07-09T12:00:48.568Z,26.51
2018-07-09T12:01:56.339Z,26.59
2018-07-09T12:03:04.023Z,26.56
2018-07-09T12:04:11.749Z,26.56
2018-07-09T12:05:19.480Z,26.71
2018-07-09T12:06:27.215Z,26.72
2018-07-09T12:07:35.008Z,26.84
2018-07-09T12:08:42.836Z,26.97
2018-07-09T12:09:50.685Z,27.07
2018-07-09T12:10:58.582Z,27.05
2018-07-09T12:12:06.499Z,27.07
2018-07-09T12:13:14.454Z,27.00
2018-07-09T12:14:22.369Z,27.01
2018-07-09T12:15:30.299Z,26.84
2018-07-09T12:16:38.197Z,26.36
2018-07-09T12:17:46.066Z,26.05
2018-07-09T12:18:53.935Z,26.01
2018-07-09T12:20:01.817Z,26.04
2018-07-09T12:21:09.700Z,25.99
2018-07-09T12:22:17.609Z,25.85
2018-07-09T12:23:25.548Z,25.58
2018-07-09T12:24:33.560Z,25.32
2018-07-09T12:25:41.523Z,25.31
2018-07-09T12:26:49.611Z,25.55
2018-07-09T12:27:57.563Z,25.72
2018-07-09T12:29:05.703Z,25.75
2018-07-09T12:30:13.685Z,25.72
2018-07-09T12:31:21.892Z,25.72
2018-07-09T12:32:29.868Z,25.61
2018-07-09T12:33:37.824Z,25.47
2018-07-09T12:34:46.258Z,25.49
2018-07-09T12:35:54.368Z,25.51
2018-07-09T12:37:01.996Z,25.61
2018-07-09T12:38:10.029Z,25.30
2018-07-09T12:39:18.080Z,25.12
2018-07-09T12:40:26.121Z,25.35
2018-07-09T12:41:34.159Z,25.72
2018-07-09T12:42:42.178Z,25.78
2018-07-09T12:43:50.228Z,25.94
2018-07-09T12:44:58.175Z,26.09
2018-07-09T12:46:06.190Z,26.16
2018-07-09T12:47:15.187Z,26.16
2018-07-09T12:48:22.198Z,26.20
2018-07-09T12:49:30.202Z,26.21
2018-07-09T12:50:38.204Z,26.03
2018-07-09T12:51:46.210Z,25.94
2018-07-09T12:52:54.193Z,25.75
2018-07-09T12:54:02.198Z,25.67
2018-07-09T12:55:10.191Z,25.75
2018-07-09T12:56:18.197Z,25.90
2018-07-09T12:57:26.172Z,26.09
2018-07-09T12:58:34.147Z,26.39
2018-07-09T12:59:42.125Z,26.59
2018-07-09T13:00:50.111Z,26.33
2018-07-09T13:01:58.093Z,26.23
2018-07-09T13:03:06.066Z,26.13
2018-07-09T13:04:15.036Z,26.18
2018-07-09T13:05:21.990Z,26.36
2018-07-09T13:06:29.931Z,26.35
2018-07-09T13:07:37.890Z,26.58
2018-07-09T13:08:45.855Z,26.75
2018-07-09T13:09:53.925Z,26.91
2018-07-09T13:11:01.901Z,26.93
2018-07-09T13:12:09.904Z,26.91
2018-07-09T13:13:17.766Z,27.09
2018-07-09T13:14:25.750Z,27.28
2018-07-09T13:15:33.726Z,27.57
2018-07-09T13:16:41.684Z,27.84
2018-07-09T13:17:49.615Z,28.05
2018-07-09T13:18:57.533Z,28.03
2018-07-09T13:20:05.427Z,28.17
2018-07-09T13:21:13.301Z,28.43
2018-07-09T13:22:21.159Z,28.42
2018-07-09T13:23:29.022Z,28.15
2018-07-09T13:24:36.870Z,28.24
2018-07-09T13:25:44.750Z,28.47
2018-07-09T13:26:52.636Z,28.28
2018-07-09T13:28:00.546Z,28.29
2018-07-09T13:29:08.426Z,28.30
2018-07-09T13:30:16.292Z,28.52
2018-07-09T13:31:24.111Z,28.72
2018-07-09T13:32:31.890Z,28.83
2018-07-09T13:33:39.663Z,28.80
2018-07-09T13:34:47.405Z,28.68
2018-07-09T13:35:55.463Z,28.76
2018-07-09T13:37:02.874Z,28.49
2018-07-09T13:38:10.594Z,28.15
2018-07-09T13:39:18.312Z,27.74
2018-07-09T13:40:25.985Z,27.82
2018-07-09T13:41:33.643Z,27.91
2018-07-09T13:42:41.259Z,27.88
2018-07-09T13:43:48.890Z,27.88
2018-07-09T13:44:56.509Z,28.29
2018-07-09T13:46:04.142Z,28.66
2018-07-09T13:47:11.776Z,28.69
2018-07-09T13:48:19.407Z,28.55
2018-07-09T13:49:27.047Z,28.38
2018-07-09T13:50:34.643Z,28.30
2018-07-09T13:51:42.228Z,28.37
2018-07-09T13:52:49.761Z,28.43
2018-07-09T13:53:57.286Z,28.50
2018-07-09T13:55:04.773Z,28.59
2018-07-09T13:56:12.232Z,28.51
2018-07-09T13:57:19.659Z,28.51
2018-07-09T13:58:27.093Z,28.29
2018-07-09T13:59:34.512Z,27.94
2018-07-09T14:00:41.935Z,28.11
2018-07-09T14:01:49.372Z,28.31
2018-07-09T14:02:56.821Z,28.59
2018-07-09T14:04:04.294Z,28.69
2018-07-09T14:05:11.783Z,28.79
2018-07-09T14:06:19.302Z,28.81
2018-07-09T14:07:26.832Z,28.75
2018-07-09T14:08:34.356Z,28.77
2018-07-09T14:09:41.882Z,28.75
2018-07-09T14:10:49.435Z,28.69
2018-07-09T14:11:56.975Z,28.66
2018-07-09T14:13:04.531Z,28.54
2018-07-09T14:14:12.082Z,28.48
2018-07-09T14:15:19.637Z,28.33
2018-07-09T14:16:27.206Z,28.32
2018-07-09T14:17:34.779Z,28.42
2018-07-09T14:18:42.400Z,28.53
2018-07-09T14:19:50.003Z,28.32
2018-07-09T14:20:57.648Z,28.45